createdAt,value
2023-03-29T00:01:34.906Z,94.18
2023-03-29T00:04:07.583Z,107.00
2023-03-29T00:06:37.472Z,98.00
2023-03-29T00:09:09.899Z,100.55
2023-03-29T00:11:39.629Z,109.35
2023-03-29T00:14:09.346Z,94.68
2023-03-29T00:16:39.678Z,100.68
2023-03-29T00:19:09.428Z,104.07
2023-03-29T00:21:39.132Z,93.80
2023-03-29T00:24:08.991Z,111.95
2023-03-29T00:26:38.606Z,99.68
2023-03-29T00:29:08.337Z,105.25
2023-03-29T00:31:38.051Z,100.05
2023-03-29T00:34:07.749Z,92.35
2023-03-29T00:36:37.408Z,87.70
2023-03-29T00:39:07.008Z,107.60
2023-03-29T00:41:36.708Z,101.38
2023-03-29T00:44:07.334Z,97.15
2023-03-29T00:46:37.518Z,90.57
2023-03-29T00:49:15.413Z,94.03
2023-03-29T00:51:45.751Z,95.30
2023-03-29T00:54:20.178Z,99.80
2023-03-29T00:56:53.116Z,96.90
2023-03-29T00:59:26.456Z,112.00
2023-03-29T01:02:08.553Z,95.05
2023-03-29T01:04:52.484Z,92.97
2023-03-29T01:10:06.613Z,93.95
2023-03-29T01:12:41.363Z,103.05
2023-03-29T01:15:30.190Z,88.10
2023-03-29T01:18:03.322Z,88.70
2023-03-29T01:20:52.611Z,85.78
2023-03-29T01:24:08.172Z,89.45
2023-03-29T01:27:02.515Z,106.47
2023-03-29T01:30:07.016Z,106.60
2023-03-29T01:35:37.287Z,88.15
2023-03-29T01:38:16.063Z,90.63
2023-03-29T01:40:45.688Z,106.60
2023-03-29T01:43:19.121Z,102.03
2023-03-29T01:45:56.183Z,96.63
2023-03-29T01:48:29.938Z,85.03
2023-03-29T01:53:41.259Z,87.22
2023-03-29T01:56:18.824Z,80.15
2023-03-29T01:58:53.336Z,95.22
2023-03-29T02:01:28.070Z,87.38
2023-03-29T02:04:04.303Z,83.32
2023-03-29T02:06:36.037Z,80.50
2023-03-29T02:09:06.777Z,60.60
2023-03-29T02:11:37.984Z,86.65
2023-03-29T02:14:08.003Z,92.20
2023-03-29T02:16:40.505Z,79.93
2023-03-29T02:19:12.222Z,65.60
2023-03-29T02:21:50.656Z,87.30
2023-03-29T02:24:23.743Z,66.18
2023-03-29T02:26:53.502Z,61.17
2023-03-29T02:29:23.100Z,84.35
2023-03-29T02:32:00.401Z,60.90
2023-03-29T02:34:39.161Z,49.97
2023-03-29T02:37:17.231Z,85.70
2023-03-29T02:39:51.137Z,71.68
2023-03-29T02:42:21.906Z,58.42
2023-03-29T02:44:54.345Z,78.30
2023-03-29T02:47:40.765Z,53.28
2023-03-29T02:52:44.620Z,60.08
2023-03-29T02:55:19.304Z,51.80
2023-03-29T02:57:48.884Z,35.03
2023-03-29T03:00:21.428Z,60.15
2023-03-29T03:02:52.361Z,71.75
2023-03-29T03:05:22.170Z,54.55
2023-03-29T03:07:51.832Z,58.47
2023-03-29T03:10:21.546Z,60.75
2023-03-29T03:12:51.321Z,67.72
2023-03-29T03:15:21.434Z,56.90
2023-03-29T03:17:50.988Z,52.45
2023-03-29T03:20:23.635Z,59.38
2023-03-29T03:22:53.281Z,67.35
2023-03-29T03:25:23.530Z,60.05
2023-03-29T03:27:53.619Z,52.60
2023-03-29T03:30:23.445Z,45.60
2023-03-29T03:32:53.127Z,65.38
2023-03-29T03:35:23.660Z,58.40
2023-03-29T03:37:53.295Z,58.25
2023-03-29T03:40:23.596Z,50.10
2023-03-29T03:42:53.461Z,57.65
2023-03-29T03:45:23.402Z,60.72
2023-03-29T03:47:53.696Z,57.30
2023-03-29T03:50:23.433Z,64.28
2023-03-29T03:52:53.577Z,50.65
2023-03-29T03:55:23.604Z,55.47
2023-03-29T03:57:54.102Z,53.92
2023-03-29T04:00:24.908Z,59.13
2023-03-29T04:02:58.317Z,52.03
2023-03-29T04:05:28.620Z,55.55
2023-03-29T04:07:58.848Z,54.63
2023-03-29T04:10:28.576Z,58.25
2023-03-29T04:12:58.413Z,48.25
2023-03-29T04:15:28.131Z,56.10
2023-03-29T04:18:03.285Z,58.72
2023-03-29T04:20:32.899Z,62.33
2023-03-29T04:23:02.529Z,71.32
2023-03-29T04:25:32.175Z,64.30
2023-03-29T04:28:02.103Z,64.78
2023-03-29T04:30:31.758Z,63.03
2023-03-29T04:33:01.914Z,59.85
2023-03-29T04:35:31.832Z,63.08
2023-03-29T04:38:01.532Z,68.13
2023-03-29T04:40:31.197Z,61.13
2023-03-29T04:43:02.356Z,48.20
2023-03-29T04:45:32.943Z,43.83
2023-03-29T04:48:02.681Z,38.70
2023-03-29T04:50:33.455Z,39.90
2023-03-29T04:53:03.224Z,43.50
2023-03-29T04:55:33.040Z,25.05
2023-03-29T04:58:02.787Z,42.60
2023-03-29T05:00:33.092Z,47.00
2023-03-29T05:03:02.803Z,47.40
2023-03-29T05:05:33.343Z,45.35
2023-03-29T05:08:03.138Z,53.33
2023-03-29T05:10:32.904Z,45.00
2023-03-29T05:13:02.600Z,45.72
2023-03-29T05:15:33.402Z,36.80
2023-03-29T05:18:03.038Z,44.47
2023-03-29T05:20:32.916Z,37.47
2023-03-29T05:23:02.943Z,40.58
2023-03-29T05:25:32.576Z,51.28
2023-03-29T05:28:03.028Z,44.05
2023-03-29T05:30:32.666Z,53.28
2023-03-29T05:33:04.482Z,48.78
2023-03-29T05:35:34.531Z,39.17
2023-03-29T05:38:05.918Z,46.20
2023-03-29T05:40:37.284Z,25.63
2023-03-29T05:43:06.903Z,32.10
2023-03-29T05:45:36.525Z,40.72
2023-03-29T05:48:06.950Z,38.92
2023-03-29T05:50:38.409Z,52.60
2023-03-29T05:53:08.050Z,53.40
2023-03-29T05:55:37.623Z,44.25
2023-03-29T05:58:07.182Z,59.67
2023-03-29T06:00:39.416Z,57.47
2023-03-29T06:03:18.007Z,58.17
2023-03-29T06:05:52.323Z,69.18
2023-03-29T06:08:22.216Z,65.82
2023-03-29T06:10:51.966Z,74.75
2023-03-29T06:13:21.832Z,76.93
2023-03-29T06:15:51.451Z,73.75
2023-03-29T06:18:21.867Z,54.38
2023-03-29T06:20:55.315Z,71.65
2023-03-29T06:25:54.459Z,48.15
2023-03-29T06:28:25.637Z,65.53
2023-03-29T06:30:58.137Z,56.42
2023-03-29T06:33:28.002Z,64.10
2023-03-29T06:35:57.848Z,67.60
2023-03-29T06:38:29.949Z,57.15
2023-03-29T06:41:08.106Z,78.13
2023-03-29T06:43:38.153Z,61.90
2023-03-29T06:46:13.233Z,56.97
2023-03-29T06:48:43.337Z,55.50
2023-03-29T06:51:13.016Z,49.13
2023-03-29T06:53:42.965Z,61.40
2023-03-29T06:56:12.736Z,65.90
2023-03-29T06:58:42.496Z,61.45
2023-03-29T07:01:13.180Z,56.70
2023-03-29T07:03:44.178Z,58.42
2023-03-29T07:06:18.014Z,53.97
2023-03-29T07:08:48.532Z,61.72
2023-03-29T07:11:20.202Z,51.25
2023-03-29T07:13:50.605Z,47.70
2023-03-29T07:16:20.879Z,52.88
2023-03-29T07:18:50.632Z,43.40
2023-03-29T07:21:20.216Z,40.13
2023-03-29T07:23:49.750Z,36.05
2023-03-29T07:26:28.938Z,30.85
2023-03-29T07:29:00.291Z,36.38
2023-03-29T07:31:34.473Z,39.45
2023-03-29T07:34:08.140Z,21.80
2023-03-29T07:36:38.465Z,30.50
2023-03-29T07:39:10.692Z,25.90
2023-03-29T07:41:40.478Z,22.70
2023-03-29T07:44:10.929Z,18.95
2023-03-29T07:46:40.762Z,21.17
2023-03-29T07:49:10.444Z,21.65
2023-03-29T07:51:40.097Z,16.00
2023-03-29T07:54:09.782Z,15.90
2023-03-29T07:56:39.339Z,17.48
2023-03-29T07:59:08.959Z,21.88
2023-03-29T08:01:38.559Z,23.48
2023-03-29T08:04:08.486Z,17.45
2023-03-29T08:06:39.007Z,22.30
2023-03-29T08:09:08.598Z,10.77
2023-03-29T08:11:41.398Z,16.70
2023-03-29T08:14:10.957Z,17.83
2023-03-29T08:16:40.583Z,26.23
2023-03-29T08:19:10.372Z,21.27
2023-03-29T08:21:39.936Z,21.67
2023-03-29T08:24:09.865Z,27.10
2023-03-29T08:26:39.520Z,25.23
2023-03-29T08:29:10.418Z,26.15
2023-03-29T08:31:40.136Z,26.95
2023-03-29T08:34:09.783Z,25.48
2023-03-29T08:36:39.549Z,27.40
2023-03-29T08:39:09.226Z,33.95
2023-03-29T08:41:41.877Z,37.08
2023-03-29T08:44:22.070Z,25.73
2023-03-29T08:47:04.347Z,36.45
2023-03-29T08:49:34.430Z,30.90
2023-03-29T08:52:08.605Z,24.00
2023-03-29T08:54:45.525Z,28.95
2023-03-29T08:57:32.689Z,27.02
2023-03-29T09:00:09.054Z,31.45
2023-03-29T09:02:39.599Z,26.17
2023-03-29T09:05:24.691Z,25.13
2023-03-29T09:07:55.451Z,28.27
2023-03-29T09:10:58.090Z,27.38
2023-03-29T09:13:34.943Z,20.05
2023-03-29T09:16:19.342Z,25.33
2023-03-29T09:19:18.434Z,32.00
2023-03-29T09:22:00.166Z,16.75
2023-03-29T09:24:40.280Z,17.15
2023-03-29T09:27:17.596Z,22.30
2023-03-29T09:29:50.310Z,28.38
2023-03-29T09:32:28.153Z,25.25
2023-03-29T09:35:19.699Z,17.98
2023-03-29T09:37:52.776Z,20.27
2023-03-29T09:40:45.431Z,27.17
2023-03-29T09:43:19.884Z,24.08
2023-03-29T09:45:58.538Z,22.15
2023-03-29T09:48:31.866Z,23.23
2023-03-29T09:51:04.474Z,24.30
2023-03-29T09:53:34.420Z,21.93
2023-03-29T09:56:04.747Z,19.60
2023-03-29T09:58:34.472Z,14.35
2023-03-29T10:01:11.552Z,17.55
2023-03-29T10:03:43.080Z,19.25
2023-03-29T10:06:14.251Z,22.08
2023-03-29T10:08:58.270Z,28.50
2023-03-29T10:11:36.426Z,23.15
2023-03-29T10:14:19.193Z,26.25
2023-03-29T10:16:49.147Z,33.25
2023-03-29T10:19:25.767Z,32.03
2023-03-29T10:21:57.114Z,17.90
2023-03-29T10:24:28.997Z,27.23
2023-03-29T10:27:13.145Z,23.35
2023-03-29T10:29:44.646Z,18.77
2023-03-29T10:32:34.209Z,29.58
2023-03-29T10:35:12.352Z,16.95
2023-03-29T10:37:47.522Z,23.40
2023-03-29T10:40:44.758Z,21.88
2023-03-29T10:43:22.845Z,21.55
2023-03-29T10:45:57.936Z,18.25
2023-03-29T10:48:32.408Z,21.63
2023-03-29T10:51:04.019Z,19.27
2023-03-29T10:53:39.263Z,16.35
2023-03-29T10:56:24.566Z,19.02
2023-03-29T10:59:06.315Z,19.15
2023-03-29T11:02:08.234Z,22.08
2023-03-29T11:05:00.672Z,17.33
2023-03-29T11:07:57.831Z,23.08
2023-03-29T11:11:02.872Z,19.50
2023-03-29T11:13:59.754Z,16.73
2023-03-29T11:17:02.450Z,18.27
2023-03-29T11:19:58.011Z,20.10
2023-03-29T11:22:49.363Z,23.48
2023-03-29T11:25:41.108Z,28.40
2023-03-29T11:28:13.642Z,21.88
2023-03-29T11:31:02.403Z,26.95
2023-03-29T11:33:56.415Z,25.98
2023-03-29T11:36:53.511Z,31.27
2023-03-29T11:39:47.672Z,29.20
2023-03-29T11:42:26.718Z,29.92
2023-03-29T11:44:59.113Z,42.70
2023-03-29T11:47:35.134Z,32.22
2023-03-29T11:50:21.114Z,34.60
2023-03-29T11:53:14.786Z,25.60
2023-03-29T11:55:45.613Z,42.00
2023-03-29T11:58:25.102Z,33.20
2023-03-29T12:01:00.395Z,39.25
2023-03-29T12:03:43.644Z,35.95
2023-03-29T12:06:33.455Z,33.10
2023-03-29T12:09:24.138Z,31.08
2023-03-29T12:12:31.500Z,32.63
2023-03-29T12:15:26.357Z,30.80
2023-03-29T12:18:01.910Z,36.53
2023-03-29T12:20:37.130Z,37.15
2023-03-29T12:23:09.220Z,31.33
2023-03-29T12:26:03.975Z,35.28
2023-03-29T12:29:08.721Z,34.33
2023-03-29T12:31:55.004Z,44.80
2023-03-29T12:35:01.370Z,28.35
2023-03-29T12:37:42.965Z,31.70
2023-03-29T12:40:21.153Z,38.60
2023-03-29T12:42:55.831Z,34.75
2023-03-29T12:45:44.423Z,33.50
2023-03-29T12:48:29.179Z,34.33
2023-03-29T12:51:03.364Z,29.88
2023-03-29T12:53:44.125Z,34.65
2023-03-29T12:56:20.269Z,31.05
2023-03-29T12:59:01.931Z,35.60
2023-03-29T13:01:35.438Z,31.65
2023-03-29T13:06:54.135Z,44.58
2023-03-29T13:09:51.577Z,35.17
2023-03-29T13:12:46.221Z,30.95
2023-03-29T13:15:19.179Z,35.97
2023-03-29T13:17:52.140Z,45.65
2023-03-29T13:20:46.031Z,35.65
2023-03-29T13:23:30.822Z,24.33
2023-03-29T13:26:21.692Z,35.13
2023-03-29T13:29:09.435Z,38.53
2023-03-29T13:31:46.791Z,34.90
2023-03-29T13:34:35.337Z,31.40
2023-03-29T13:37:22.421Z,31.00
2023-03-29T13:39:55.281Z,32.42
2023-03-29T13:42:44.932Z,32.53
2023-03-29T13:45:30.655Z,38.85
2023-03-29T13:48:07.975Z,41.38
2023-03-29T13:50:54.016Z,36.42
2023-03-29T13:54:03.834Z,36.65
2023-03-29T13:57:02.983Z,25.35
2023-03-29T14:00:23.458Z,24.50
2023-03-29T14:02:55.119Z,32.55
2023-03-29T14:05:32.343Z,30.52
2023-03-29T14:08:21.029Z,39.25
2023-03-29T14:10:53.719Z,27.77
2023-03-29T14:13:30.618Z,30.35
2023-03-29T14:16:13.547Z,30.05
2023-03-29T14:18:46.504Z,30.77
2023-03-29T14:21:19.246Z,33.47
2023-03-29T14:23:56.456Z,39.90
2023-03-29T14:26:33.178Z,30.38
2023-03-29T14:29:06.253Z,35.60
2023-03-29T14:31:40.317Z,37.08
2023-03-29T14:34:21.809Z,36.90
2023-03-29T14:36:54.757Z,33.58
2023-03-29T14:39:26.794Z,28.05
2023-03-29T14:42:00.351Z,35.88
2023-03-29T14:44:36.796Z,36.25
2023-03-29T14:47:07.372Z,41.60
2023-03-29T14:49:38.069Z,29.05
2023-03-29T14:52:08.535Z,45.35
2023-03-29T14:54:38.541Z,38.55
2023-03-29T14:57:09.773Z,31.80
2023-03-29T14:59:44.553Z,33.95
2023-03-29T15:02:34.111Z,31.75
2023-03-29T15:05:09.626Z,37.00
2023-03-29T15:07:41.378Z,32.92
2023-03-29T15:10:18.915Z,40.83
2023-03-29T15:12:52.152Z,37.80
2023-03-29T15:15:23.665Z,36.42
2023-03-29T15:17:54.675Z,32.10
2023-03-29T15:20:42.462Z,32.28
2023-03-29T15:23:25.325Z,32.80
2023-03-29T15:26:26.179Z,35.50
2023-03-29T15:29:24.734Z,35.75
2023-03-29T15:32:02.271Z,28.85
2023-03-29T15:34:35.388Z,28.73
2023-03-29T15:37:05.785Z,41.40
2023-03-29T15:39:36.496Z,34.78
2023-03-29T15:42:06.186Z,37.03
2023-03-29T15:44:36.821Z,41.55
2023-03-29T15:47:11.758Z,43.67
2023-03-29T15:49:42.158Z,29.05
2023-03-29T15:52:12.027Z,36.40
2023-03-29T15:54:42.798Z,38.97
2023-03-29T15:57:17.388Z,32.40
2023-03-29T15:59:47.533Z,47.75
2023-03-29T16:02:18.468Z,36.80
2023-03-29T16:04:48.338Z,33.33
2023-03-29T16:07:23.360Z,26.45
2023-03-29T16:09:53.259Z,34.58
2023-03-29T16:12:24.559Z,29.58
2023-03-29T16:14:54.688Z,31.15
2023-03-29T16:17:24.412Z,35.03
2023-03-29T16:19:54.063Z,42.97
2023-03-29T16:22:25.544Z,33.28
2023-03-29T16:24:56.487Z,30.83
2023-03-29T16:27:26.172Z,44.25
2023-03-29T16:29:56.147Z,30.48
2023-03-29T16:32:25.933Z,32.50
2023-03-29T16:34:56.906Z,32.97
2023-03-29T16:37:28.121Z,30.33
2023-03-29T16:40:01.897Z,31.25
2023-03-29T16:42:31.663Z,27.85
2023-03-29T16:45:06.614Z,33.50
2023-03-29T16:47:36.671Z,32.08
2023-03-29T16:50:06.709Z,26.83
2023-03-29T16:52:36.406Z,38.25
2023-03-29T16:55:07.471Z,35.33
2023-03-29T16:57:37.429Z,35.88
2023-03-29T17:00:08.422Z,41.85
2023-03-29T17:02:38.697Z,34.92
2023-03-29T17:05:08.837Z,26.13
2023-03-29T17:07:38.563Z,25.30
2023-03-29T17:10:12.217Z,33.10
2023-03-29T17:15:12.087Z,30.42
2023-03-29T17:17:42.345Z,33.08
2023-03-29T17:20:13.900Z,43.80
2023-03-29T17:22:54.263Z,36.33
2023-03-29T17:25:26.004Z,39.42
2023-03-29T17:27:55.677Z,43.50
2023-03-29T17:30:32.036Z,42.03
2023-03-29T17:33:03.900Z,37.65
2023-03-29T17:35:33.864Z,55.53
2023-03-29T17:38:04.408Z,41.95
2023-03-29T17:40:34.101Z,41.42
2023-03-29T17:43:03.863Z,40.60
2023-03-29T17:45:33.865Z,45.15
2023-03-29T17:48:06.064Z,49.83
2023-03-29T17:50:36.671Z,42.55
2023-03-29T17:53:07.162Z,39.88
2023-03-29T17:55:36.902Z,50.45
2023-03-29T17:58:07.105Z,46.70
2023-03-29T18:00:37.281Z,45.42
2023-03-29T18:03:07.337Z,47.38
2023-03-29T18:05:37.873Z,41.53
2023-03-29T18:08:07.721Z,43.63
2023-03-29T18:10:38.330Z,47.10
2023-03-29T18:13:08.286Z,51.03
2023-03-29T18:15:37.929Z,47.38
2023-03-29T18:18:07.927Z,36.72
2023-03-29T18:20:37.843Z,49.60
2023-03-29T18:23:07.670Z,55.47
2023-03-29T18:25:37.449Z,51.45
2023-03-29T18:28:08.171Z,45.75
2023-03-29T18:30:38.911Z,38.60
2023-03-29T18:33:09.002Z,37.83
2023-03-29T18:35:40.035Z,40.42
2023-03-29T18:38:10.289Z,36.25
2023-03-29T18:40:40.660Z,39.42
2023-03-29T18:43:10.269Z,44.67
2023-03-29T18:45:39.936Z,37.33
2023-03-29T18:48:09.686Z,40.05
2023-03-29T18:50:40.446Z,39.47
2023-03-29T18:53:12.667Z,33.38
2023-03-29T18:55:46.090Z,38.28
2023-03-29T18:58:17.210Z,39.53
2023-03-29T19:00:47.078Z,35.88
2023-03-29T19:03:16.841Z,30.85
2023-03-29T19:05:46.607Z,47.25
2023-03-29T19:08:16.293Z,36.17
2023-03-29T19:10:46.475Z,45.35
2023-03-29T19:13:20.877Z,48.70
2023-03-29T19:15:50.575Z,42.95
2023-03-29T19:18:20.242Z,39.75
2023-03-29T19:20:55.305Z,43.60
2023-03-29T19:23:29.747Z,48.42
2023-03-29T19:26:02.572Z,41.10
2023-03-29T19:28:33.305Z,38.17
2023-03-29T19:31:04.595Z,42.65
2023-03-29T19:33:34.525Z,36.78
2023-03-29T19:36:04.525Z,43.80
2023-03-29T19:38:34.411Z,44.28
2023-03-29T19:41:04.247Z,40.58
2023-03-29T19:43:34.020Z,41.33
2023-03-29T19:46:12.202Z,40.88
2023-03-29T19:48:42.656Z,46.20
2023-03-29T19:51:12.312Z,43.58
2023-03-29T19:53:42.018Z,45.92
2023-03-29T19:56:12.394Z,48.53
2023-03-29T19:58:42.335Z,36.67
2023-03-29T20:01:12.228Z,37.13
2023-03-29T20:03:43.546Z,39.30
2023-03-29T20:06:13.597Z,38.65
2023-03-29T20:08:43.306Z,37.00
2023-03-29T20:11:13.930Z,42.58
2023-03-29T20:13:47.361Z,37.92
2023-03-29T20:16:19.072Z,47.17
2023-03-29T20:18:48.955Z,45.58
2023-03-29T20:21:19.848Z,43.75
2023-03-29T20:23:49.651Z,43.92
2023-03-29T20:26:19.795Z,43.15
2023-03-29T20:28:49.440Z,39.75
2023-03-29T20:31:19.209Z,39.85
2023-03-29T20:33:48.862Z,36.10
2023-03-29T20:36:24.497Z,41.63
2023-03-29T20:38:56.777Z,41.90
2023-03-29T20:41:26.582Z,38.97
2023-03-29T20:44:01.876Z,44.83
2023-03-29T20:46:35.008Z,39.33
2023-03-29T20:49:07.308Z,38.85
2023-03-29T20:51:39.660Z,42.25
2023-03-29T20:54:11.520Z,52.10
2023-03-29T20:56:43.754Z,40.47
2023-03-29T20:59:13.752Z,31.05
2023-03-29T21:01:43.872Z,33.08
2023-03-29T21:04:13.680Z,36.20
2023-03-29T21:06:43.276Z,29.38
2023-03-29T21:09:14.044Z,28.80
2023-03-29T21:11:43.752Z,32.13
2023-03-29T21:14:13.801Z,29.85
2023-03-29T21:16:48.041Z,27.98
2023-03-29T21:19:19.003Z,34.85
2023-03-29T21:21:49.755Z,28.15
2023-03-29T21:24:19.623Z,26.25
2023-03-29T21:26:49.386Z,29.63
2023-03-29T21:29:19.014Z,27.48
2023-03-29T21:31:48.636Z,28.40
2023-03-29T21:34:18.552Z,30.98
2023-03-29T21:36:48.131Z,25.85
2023-03-29T21:39:17.988Z,21.85
2023-03-29T21:41:47.855Z,27.83
2023-03-29T21:44:17.747Z,27.92
2023-03-29T21:46:47.709Z,34.92
2023-03-29T21:49:17.360Z,36.72
2023-03-29T21:51:47.981Z,38.63
2023-03-29T21:54:17.667Z,31.90
2023-03-29T21:56:49.221Z,29.85
2023-03-29T21:59:18.811Z,32.35
2023-03-29T22:01:48.433Z,27.98
2023-03-29T22:04:29.241Z,38.83
2023-03-29T22:07:05.531Z,44.95
2023-03-29T22:09:36.486Z,38.67
2023-03-29T22:12:07.087Z,40.40
2023-03-29T22:14:37.208Z,39.63
2023-03-29T22:17:08.454Z,39.47
2023-03-29T22:19:41.563Z,37.60
2023-03-29T22:22:14.838Z,47.60
2023-03-29T22:24:44.661Z,49.80
2023-03-29T22:27:14.294Z,51.15
2023-03-29T22:29:43.942Z,46.00
2023-03-29T22:32:13.554Z,51.97
2023-03-29T22:34:43.245Z,44.13
2023-03-29T22:37:13.603Z,46.75
2023-03-29T22:39:43.256Z,51.97
2023-03-29T22:42:12.974Z,55.78
2023-03-29T22:44:42.788Z,59.17
2023-03-29T22:47:12.562Z,57.45
2023-03-29T22:49:42.518Z,54.03
2023-03-29T22:52:12.180Z,53.45
2023-03-29T22:54:42.031Z,58.30
2023-03-29T22:57:11.699Z,48.80
2023-03-29T22:59:41.404Z,58.53
2023-03-29T23:02:11.086Z,63.65
2023-03-29T23:04:40.823Z,62.85
2023-03-29T23:07:10.701Z,54.78
2023-03-29T23:09:40.286Z,66.25
2023-03-29T23:12:11.224Z,53.42
2023-03-29T23:14:44.153Z,58.80
2023-03-29T23:17:14.923Z,61.97
2023-03-29T23:19:44.713Z,59.83
2023-03-29T23:22:15.106Z,56.75
2023-03-29T23:24:45.353Z,59.65
2023-03-29T23:27:15.302Z,61.42
2023-03-29T23:29:46.660Z,58.28
2023-03-29T23:32:17.237Z,52.10
2023-03-29T23:34:47.125Z,46.38
2023-03-29T23:37:16.730Z,56.08
2023-03-29T23:39:46.317Z,56.70
2023-03-29T23:42:15.927Z,51.10
2023-03-29T23:44:45.555Z,56.10
2023-03-29T23:47:15.454Z,52.20
2023-03-29T23:49:46.770Z,63.67
2023-03-29T23:52:16.380Z,68.05
2023-03-29T23:54:45.975Z,55.90
2023-03-29T23:57:15.619Z,60.17
2023-03-29T23:59:45.218Z,61.08
